Time;durP1;ratioP1;P1;durP2;ratioP2;P2;SDS_P1;SDS_P2;PMS_P1;PMS_P2;Temp;Humidity;BMP_temperature;BMP_pressure;BME280_temperature;BME280_humidity;BME280_pressure;Samples;Min_cycle;Max_cycle;Signal;HPM_P1;HPM_P2
2022/10/31 00:00:32;;;;;;;10.68;7.15;;;12.50;99.90;;;;;;4776883;28;10000662;-76
2022/10/31 00:02:58;;;;;;;15.05;6.90;;;12.50;99.90;;;;;;5029545;28;20373;-77
2022/10/31 00:05:23;;;;;;;12.00;7.05;;;12.50;99.90;;;;;;5032542;28;20109;-77
2022/10/31 00:07:52;;;;;;;10.65;7.07;;;12.50;99.90;;;;;;5029507;28;20029;-77
2022/10/31 00:10:18;;;;;;;12.10;6.97;;;12.50;99.90;;;;;;5030097;28;20029;-77
2022/10/31 00:12:43;;;;;;;12.75;7.07;;;12.50;99.90;;;;;;5035468;28;20048;-76
2022/10/31 00:15:09;;;;;;;10.80;6.65;;;12.50;99.90;;;;;;5043003;28;20091;-77
2022/10/31 00:17:36;;;;;;;12.70;6.93;;;12.60;99.90;;;;;;5036582;28;20059;-77
2022/10/31 00:20:01;;;;;;;8.70;6.07;;;12.50;99.90;;;;;;5033338;28;20044;-76
2022/10/31 00:22:27;;;;;;;11.02;6.15;;;12.50;99.90;;;;;;5028710;28;20761;-76
2022/10/31 00:24:52;;;;;;;8.30;6.05;;;12.50;99.90;;;;;;5032608;28;20087;-77
2022/10/31 00:27:18;;;;;;;12.15;6.35;;;12.50;99.90;;;;;;5036254;28;20072;-76
2022/10/31 00:29:44;;;;;;;13.63;7.38;;;12.50;99.90;;;;;;5038521;28;20056;-76
2022/10/31 00:32:09;;;;;;;12.55;6.93;;;12.50;99.90;;;;;;5034598;28;20111;-76
2022/10/31 00:34:35;;;;;;;12.95;7.15;;;12.50;99.90;;;;;;5033416;28;20057;-77
2022/10/31 00:37:00;;;;;;;10.80;7.22;;;12.50;99.90;;;;;;5028654;28;20040;-77
2022/10/31 00:39:26;;;;;;;11.45;6.43;;;12.50;99.90;;;;;;5038183;28;20396;-76
2022/10/31 00:41:52;;;;;;;12.48;6.15;;;12.40;99.90;;;;;;5035510;28;20479;-76
2022/10/31 00:44:17;;;;;;;12.20;7.25;;;12.40;99.90;;;;;;5037008;28;20021;-76
2022/10/31 00:46:43;;;;;;;11.35;6.70;;;12.40;99.90;;;;;;5031584;28;20041;-76
2022/10/31 00:49:08;;;;;;;11.93;6.57;;;12.40;99.90;;;;;;5030551;28;20474;-77
2022/10/31 00:51:34;;;;;;;10.60;7.05;;;12.40;99.90;;;;;;5030538;28;20064;-76
2022/10/31 00:53:59;;;;;;;10.50;6.25;;;12.40;99.90;;;;;;5037708;28;20031;-76
2022/10/31 00:56:25;;;;;;;12.70;6.55;;;12.40;99.90;;;;;;5028223;28;20036;-77
2022/10/31 00:58:51;;;;;;;10.90;6.70;;;12.40;99.90;;;;;;5030375;28;20034;-76
2022/10/31 01:01:16;;;;;;;10.70;6.65;;;12.40;99.90;;;;;;5035871;28;20477;-77
2022/10/31 01:03:42;;;;;;;11.18;6.80;;;12.40;99.90;;;;;;5031043;28;20036;-77
2022/10/31 01:06:10;;;;;;;11.13;6.80;;;12.40;99.90;;;;;;5037007;28;20025;-76
2022/10/31 01:08:36;;;;;;;10.32;7.18;;;12.30;99.90;;;;;;5028940;28;20017;-77
2022/10/31 01:11:04;;;;;;;10.00;6.57;;;12.30;99.90;;;;;;5036578;28;20482;-77
2022/10/31 01:13:29;;;;;;;12.80;7.80;;;12.30;99.90;;;;;;5032453;28;20116;-77
2022/10/31 01:15:56;;;;;;;13.30;8.05;;;12.30;99.90;;;;;;5034842;28;20112;-77
2022/10/31 01:18:22;;;;;;;10.00;7.43;;;12.30;99.90;;;;;;5029731;28;20187;-77
2022/10/31 01:20:57;;;;;;;12.25;6.57;;;12.30;99.90;;;;;;5029877;28;20565;-77
2022/10/31 01:23:22;;;;;;;11.20;7.10;;;12.30;99.90;;;;;;5026481;28;20025;-76
2022/10/31 01:25:48;;;;;;;11.80;7.00;;;12.30;99.90;;;;;;5027780;28;20527;-77
2022/10/31 01:28:14;;;;;;;10.65;6.70;;;12.30;99.90;;;;;;5044827;28;20140;-77
2022/10/31 01:30:39;;;;;;;9.57;6.30;;;12.20;99.90;;;;;;5028635;28;20405;-76
2022/10/31 01:33:05;;;;;;;9.32;6.60;;;12.20;99.90;;;;;;5024423;28;20036;-76
2022/10/31 01:35:30;;;;;;;10.38;6.72;;;12.20;99.90;;;;;;5034843;28;20044;-77
2022/10/31 01:37:56;;;;;;;8.90;6.05;;;12.20;99.90;;;;;;5025680;28;20074;-77
2022/10/31 01:40:21;;;;;;;11.15;6.97;;;12.20;99.90;;;;;;5035312;28;20024;-77
2022/10/31 01:42:47;;;;;;;12.88;6.72;;;12.20;99.90;;;;;;5021399;28;20069;-76
2022/10/31 01:45:15;;;;;;;14.27;7.00;;;12.20;99.90;;;;;;5033777;28;20052;-76
2022/10/31 01:47:45;;;;;;;15.02;7.20;;;12.20;99.90;;;;;;5029120;28;20520;-76
2022/10/31 01:50:27;;;;;;;16.65;7.20;;;12.20;99.90;;;;;;5039437;28;20451;-76
2022/10/31 01:52:54;;;;;;;13.38;7.15;;;12.20;99.90;;;;;;5027982;28;20039;-76
2022/10/31 01:55:29;;;;;;;15.43;7.90;;;12.20;99.90;;;;;;5033392;28;20445;-77
2022/10/31 01:58:03;;;;;;;14.98;8.02;;;12.10;99.90;;;;;;5028975;28;20025;-77
2022/10/31 02:00:30;;;;;;;16.77;8.25;;;12.00;99.90;;;;;;5029788;28;20518;-76
2022/10/31 02:02:55;;;;;;;13.05;8.35;;;12.00;99.90;;;;;;5028521;28;20087;-76
2022/10/31 02:05:25;;;;;;;16.77;8.90;;;11.90;99.90;;;;;;5028205;28;20317;-77
2022/10/31 02:08:08;;;;;;;12.32;8.68;;;11.80;99.90;;;;;;5028393;28;20033;-76
2022/10/31 02:10:36;;;;;;;13.55;8.90;;;11.70;99.90;;;;;;5027560;28;20160;-76
2022/10/31 02:13:05;;;;;;;14.80;8.60;;;11.70;99.90;;;;;;5024638;28;20045;-76
2022/10/31 02:15:32;;;;;;;16.98;9.80;;;11.70;99.90;;;;;;5021871;28;20037;-76
2022/10/31 02:17:58;;;;;;;19.60;8.85;;;11.70;99.90;;;;;;5026198;28;20087;-76
2022/10/31 02:20:29;;;;;;;11.55;7.50;;;11.60;99.90;;;;;;5036072;28;20484;-76
2022/10/31 02:23:10;;;;;;;11.57;7.28;;;11.60;99.90;;;;;;5023938;28;20034;-76
2022/10/31 02:26:13;;;;;;;10.80;6.88;;;11.60;99.90;;;;;;5028467;28;20086;-77
2022/10/31 02:28:41;;;;;;;10.23;7.10;;;11.60;99.90;;;;;;5024672;28;20779;-76
2022/10/31 02:31:22;;;;;;;11.18;7.00;;;11.60;99.90;;;;;;5030758;28;20303;-76
2022/10/31 02:34:02;;;;;;;14.90;7.65;;;11.50;99.90;;;;;;5024538;28;20017;-76
2022/10/31 02:36:48;;;;;;;9.52;6.95;;;11.60;99.90;;;;;;5020120;28;20152;-77
2022/10/31 02:39:38;;;;;;;9.80;6.22;;;11.60;99.90;;;;;;5033066;28;20021;-76
2022/10/31 02:42:11;;;;;;;12.10;7.35;;;11.60;99.90;;;;;;5029055;28;20105;-76
2022/10/31 02:44:44;;;;;;;10.50;6.65;;;11.50;99.90;;;;;;5036812;28;20025;-76
2022/10/31 02:47:15;;;;;;;9.90;6.43;;;11.50;99.90;;;;;;5031891;28;20045;-76
2022/10/31 02:49:59;;;;;;;11.10;6.95;;;11.50;99.90;;;;;;5030983;28;20560;-76
2022/10/31 02:52:26;;;;;;;;;;;11.50;99.90;;;;;;5030579;28;20029;-76
2022/10/31 02:54:52;;;;;;;10.93;7.20;;;11.50;99.90;;;;;;5035472;28;20388;-77
2022/10/31 02:57:24;;;;;;;9.85;7.32;;;11.50;99.90;;;;;;5028008;28;20025;-76
2022/10/31 02:59:54;;;;;;;15.43;7.28;;;11.50;99.90;;;;;;5026977;28;20025;-76
2022/10/31 03:02:30;;;;;;;12.80;7.93;;;11.50;99.90;;;;;;5031531;28;20025;-76
2022/10/31 03:05:05;;;;;;;13.73;7.85;;;11.50;99.90;;;;;;5024721;28;20025;-76
2022/10/31 03:07:46;;;;;;;14.50;8.95;;;11.50;99.90;;;;;;5026280;28;20090;-76
2022/10/31 03:10:39;;;;;;;14.63;8.05;;;11.40;99.90;;;;;;5027511;28;20116;-76
2022/10/31 03:13:10;;;;;;;12.48;7.55;;;11.40;99.90;;;;;;5023273;28;20483;-76
2022/10/31 03:15:44;;;;;;;15.80;8.73;;;11.40;99.90;;;;;;5030234;28;20049;-76
2022/10/31 03:18:23;;;;;;;14.13;9.00;;;11.40;99.90;;;;;;5037207;28;20574;-76
2022/10/31 03:20:56;;;;;;;14.27;8.13;;;11.40;99.90;;;;;;5030809;28;20021;-76
2022/10/31 03:23:24;;;;;;;11.70;8.05;;;11.40;99.90;;;;;;5033187;28;20040;-76
2022/10/31 03:25:52;;;;;;;12.73;7.90;;;11.40;99.90;;;;;;5034330;28;20358;-76
2022/10/31 03:28:23;;;;;;;11.68;7.00;;;11.40;99.90;;;;;;5033470;28;20091;-75
2022/10/31 03:30:51;;;;;;;12.93;7.30;;;11.30;99.90;;;;;;5029509;28;20045;-76
2022/10/31 03:33:24;;;;;;;14.77;7.30;;;11.20;99.90;;;;;;5035632;28;20036;-76
2022/10/31 03:35:52;;;;;;;9.70;6.30;;;11.20;99.90;;;;;;5025829;28;20136;-76
2022/10/31 03:38:19;;;;;;;9.00;5.93;;;11.20;99.90;;;;;;5036380;28;20037;-77
2022/10/31 03:40:47;;;;;;;10.30;6.03;;;11.20;99.90;;;;;;5033433;28;20125;-76
2022/10/31 03:43:21;;;;;;;9.38;6.47;;;11.20;99.90;;;;;;5033968;28;20035;-76
2022/10/31 03:45:47;;;;;;;9.95;5.93;;;11.10;99.90;;;;;;5036260;28;20028;-76
2022/10/31 03:48:15;;;;;;;11.40;6.60;;;11.10;99.90;;;;;;5029108;28;20034;-76
2022/10/31 03:51:08;;;;;;;9.63;6.25;;;11.10;99.90;;;;;;5029407;28;20041;-76
2022/10/31 03:54:13;;;;;;;10.68;6.78;;;11.10;99.90;;;;;;5035511;28;20021;-76
2022/10/31 03:56:52;;;;;;;10.13;6.53;;;11.10;99.90;;;;;;5032885;28;20545;-76
2022/10/31 03:59:35;;;;;;;9.70;6.47;;;11.10;99.90;;;;;;5031944;28;20044;-76
2022/10/31 04:02:07;;;;;;;14.88;8.23;;;11.00;99.90;;;;;;5035444;28;20047;-76
2022/10/31 04:04:35;;;;;;;15.38;7.68;;;11.10;99.90;;;;;;5035611;28;20033;-76
2022/10/31 04:07:02;;;;;;;14.27;8.02;;;11.10;99.90;;;;;;5028037;28;20393;-76
2022/10/31 04:09:31;;;;;;;11.45;8.38;;;11.00;99.90;;;;;;5028968;28;20033;-76
2022/10/31 04:11:59;;;;;;;12.68;8.35;;;11.00;99.90;;;;;;5027965;28;20040;-76
2022/10/31 04:14:27;;;;;;;15.73;8.57;;;11.00;99.90;;;;;;5037157;28;20033;-75
2022/10/31 04:16:54;;;;;;;15.23;10.00;;;11.00;99.90;;;;;;5029262;28;20504;-76
2022/10/31 04:19:19;;;;;;;17.13;9.50;;;11.00;99.90;;;;;;5039844;28;20052;-76
2022/10/31 04:21:45;;;;;;;13.70;7.95;;;10.90;99.90;;;;;;5030841;28;20034;-76
2022/10/31 04:24:11;;;;;;;12.82;7.38;;;10.80;99.90;;;;;;5028506;28;20025;-76
2022/10/31 04:26:36;;;;;;;10.93;7.35;;;10.70;99.90;;;;;;5030769;28;20505;-76
2022/10/31 04:29:02;;;;;;;10.95;7.30;;;10.70;99.90;;;;;;5021408;28;20060;-76
2022/10/31 04:31:28;;;;;;;12.23;7.97;;;10.60;99.90;;;;;;5035125;28;20136;-76
2022/10/31 04:33:54;;;;;;;11.25;7.50;;;10.60;99.90;;;;;;5026299;28;20037;-76
2022/10/31 04:36:20;;;;;;;11.38;7.75;;;10.60;99.90;;;;;;5030708;28;20086;-76
2022/10/31 04:38:45;;;;;;;14.45;8.88;;;10.60;99.90;;;;;;5036086;28;20481;-76
2022/10/31 04:41:11;;;;;;;14.35;8.80;;;10.60;99.90;;;;;;5031939;28;20026;-76
2022/10/31 04:43:36;;;;;;;13.30;9.38;;;10.60;99.90;;;;;;5031014;28;20453;-75
2022/10/31 04:46:02;;;;;;;14.10;9.23;;;10.70;99.90;;;;;;5031048;28;20179;-76
2022/10/31 04:48:28;;;;;;;14.82;9.80;;;10.70;99.90;;;;;;5040417;28;20104;-76
2022/10/31 04:51:02;;;;;;;12.77;9.10;;;10.70;99.90;;;;;;5035759;28;20040;-76
2022/10/31 04:53:28;;;;;;;14.90;8.82;;;10.70;99.90;;;;;;5026866;28;20064;-76
2022/10/31 04:55:54;;;;;;;14.75;9.18;;;10.70;99.90;;;;;;5033608;28;20120;-76
2022/10/31 04:58:19;;;;;;;14.80;8.90;;;10.70;99.90;;;;;;5035972;28;20083;-75
2022/10/31 05:00:45;;;;;;;11.55;8.65;;;10.70;99.90;;;;;;5027520;28;20014;-76
2022/10/31 05:03:10;;;;;;;15.23;10.00;;;10.70;99.90;;;;;;5013965;28;21389;-76
2022/10/31 05:05:37;;;;;;;13.60;9.32;;;10.60;99.90;;;;;;5022501;28;20125;-76
2022/10/31 05:08:03;;;;;;;15.57;10.40;;;10.60;99.90;;;;;;5033391;28;20439;-75
2022/10/31 05:10:30;;;;;;;15.27;9.73;;;10.70;99.90;;;;;;5029363;28;20300;-76
2022/10/31 05:12:58;;;;;;;14.18;8.70;;;10.70;99.90;;;;;;5035768;28;20056;-76
2022/10/31 05:15:25;;;;;;;11.35;8.00;;;10.60;99.90;;;;;;5021731;28;20072;-76
2022/10/31 05:17:52;;;;;;;15.68;7.95;;;10.60;99.90;;;;;;5026290;28;20061;-75
2022/10/31 05:20:20;;;;;;;13.70;7.75;;;10.50;99.90;;;;;;5031628;28;20067;-75
2022/10/31 05:22:48;;;;;;;9.45;7.53;;;10.50;99.90;;;;;;5031607;28;20041;-76
2022/10/31 05:25:14;;;;;;;14.82;9.27;;;10.50;99.90;;;;;;5026836;28;20091;-76
2022/10/31 05:27:41;;;;;;;12.57;9.50;;;10.60;99.90;;;;;;5034163;28;20029;-76
2022/10/31 05:30:07;;;;;;;17.25;10.55;;;10.60;99.90;;;;;;5035069;28;20316;-76
2022/10/31 05:32:43;;;;;;;16.75;10.60;;;10.60;99.90;;;;;;5025681;28;20033;-75
2022/10/31 05:35:13;;;;;;;18.52;10.80;;;10.70;99.90;;;;;;5020422;28;20029;-76
2022/10/31 05:37:39;;;;;;;15.30;10.00;;;10.70;99.90;;;;;;5030540;28;20618;-76
2022/10/31 05:40:07;;;;;;;16.50;10.95;;;10.60;99.90;;;;;;5030782;28;20075;-76
2022/10/31 05:42:33;;;;;;;15.45;10.68;;;10.60;99.90;;;;;;5030192;28;20026;-76
2022/10/31 05:44:58;;;;;;;14.43;9.85;;;10.50;99.90;;;;;;5028463;28;20040;-76
2022/10/31 05:47:24;;;;;;;15.35;10.48;;;10.50;99.90;;;;;;5032003;28;20494;-76
2022/10/31 05:49:50;;;;;;;34.45;16.60;;;10.40;99.90;;;;;;5034576;28;20098;-76
2022/10/31 05:52:16;;;;;;;31.15;18.00;;;10.50;99.90;;;;;;5024826;28;20057;-76
2022/10/31 05:54:41;;;;;;;20.80;14.38;;;10.40;99.90;;;;;;5021666;28;20036;-75
2022/10/31 05:57:07;;;;;;;18.52;12.93;;;10.40;99.90;;;;;;5025707;28;20025;-75
2022/10/31 05:59:33;;;;;;;16.98;11.73;;;10.30;99.90;;;;;;5028068;28;20574;-76
2022/10/31 06:01:58;;;;;;;21.10;12.40;;;10.20;99.90;;;;;;5022330;28;20399;-77
2022/10/31 06:04:24;;;;;;;23.17;13.85;;;10.20;99.90;;;;;;5027690;28;20119;-76
2022/10/31 06:06:50;;;;;;;18.88;13.98;;;10.20;99.90;;;;;;5023595;28;20123;-76
2022/10/31 06:09:15;;;;;;;23.60;15.07;;;10.20;99.90;;;;;;5036045;28;20025;-76
2022/10/31 06:11:41;;;;;;;23.48;14.35;;;10.10;99.90;;;;;;5031323;28;20091;-76
2022/10/31 06:14:07;;;;;;;24.73;15.45;;;10.10;99.90;;;;;;5030326;28;20463;-75
2022/10/31 06:16:32;;;;;;;28.90;17.83;;;10.10;99.90;;;;;;5022364;28;20037;-76
2022/10/31 06:18:58;;;;;;;31.20;20.38;;;10.10;99.90;;;;;;5025766;28;20064;-76
2022/10/31 06:21:24;;;;;;;39.40;25.38;;;10.00;99.90;;;;;;5027767;28;20040;-76
2022/10/31 06:23:49;;;;;;;55.22;33.75;;;10.00;99.90;;;;;;5021374;28;20515;-75
2022/10/31 06:26:15;;;;;;;59.03;36.10;;;10.00;99.90;;;;;;5030129;28;20033;-76
2022/10/31 06:28:41;;;;;;;59.03;35.35;;;10.00;99.90;;;;;;5037101;28;20029;-76
2022/10/31 06:31:07;;;;;;;52.83;31.67;;;10.10;99.90;;;;;;5029490;28;20036;-76
2022/10/31 06:33:33;;;;;;;43.33;27.45;;;10.00;99.90;;;;;;5024416;28;20148;-75
2022/10/31 06:36:00;;;;;;;38.45;24.55;;;10.00;99.90;;;;;;5024798;28;20519;-76
2022/10/31 06:38:26;;;;;;;29.90;20.63;;;10.00;99.90;;;;;;5023766;28;20044;-75
2022/10/31 06:40:53;;;;;;;26.33;16.95;;;10.10;99.90;;;;;;5030822;28;20049;-76
2022/10/31 06:43:19;;;;;;;23.23;15.30;;;10.10;99.90;;;;;;5034840;28;20638;-75
2022/10/31 06:45:45;;;;;;;22.77;12.88;;;10.20;99.90;;;;;;5029078;28;20428;-76
2022/10/31 06:48:11;;;;;;;13.30;9.35;;;10.20;99.90;;;;;;5026272;28;20034;-76
2022/10/31 06:50:36;;;;;;;21.77;10.68;;;10.30;99.90;;;;;;5030876;28;20033;-75
2022/10/31 06:53:02;;;;;;;14.88;10.50;;;10.20;99.90;;;;;;5021980;28;20033;-75
2022/10/31 06:55:28;;;;;;;21.95;10.55;;;10.10;99.90;;;;;;5035771;28;20030;-76
2022/10/31 06:57:55;;;;;;;80.45;9.60;;;10.10;99.90;;;;;;5038150;28;20432;-76
2022/10/31 07:00:22;;;;;;;14.68;9.50;;;10.10;99.90;;;;;;5036295;28;20037;-76
2022/10/31 07:02:53;;;;;;;10.27;7.22;;;10.10;99.90;;;;;;5030687;28;20381;-76
2022/10/31 07:05:19;;;;;;;6.63;5.45;;;10.10;99.90;;;;;;5033849;28;20477;-76
2022/10/31 07:07:44;;;;;;;9.82;7.00;;;10.00;99.90;;;;;;5032597;28;20030;-76
2022/10/31 07:10:10;;;;;;;7.70;5.93;;;10.00;99.90;;;;;;5033791;28;20112;-76
2022/10/31 07:12:36;;;;;;;6.68;5.97;;;10.00;99.90;;;;;;5031497;28;20036;-76
2022/10/31 07:15:01;;;;;;;5.88;5.18;;;10.00;99.90;;;;;;5026521;28;20057;-76
2022/10/31 07:17:27;;;;;;;5.85;5.25;;;10.00;99.90;;;;;;5025359;28;20021;-76
2022/10/31 07:19:52;;;;;;;5.97;5.30;;;10.00;99.90;;;;;;5034714;28;20033;-75
2022/10/31 07:22:18;;;;;;;7.90;5.72;;;10.00;99.90;;;;;;5026061;28;20039;-76
2022/10/31 07:24:44;;;;;;;7.25;5.75;;;10.00;99.90;;;;;;5025642;28;20024;-76
2022/10/31 07:27:09;;;;;;;7.38;6.15;;;10.00;99.90;;;;;;5036631;28;20033;-76
2022/10/31 07:29:35;;;;;;;8.45;5.82;;;10.10;99.90;;;;;;5030699;28;20168;-76
2022/10/31 07:32:01;;;;;;;9.90;7.90;;;10.10;99.90;;;;;;5040465;28;20090;-75
2022/10/31 07:34:27;;;;;;;13.85;8.95;;;10.10;99.90;;;;;;5039971;28;20134;-76
2022/10/31 07:36:52;;;;;;;15.10;8.63;;;10.20;99.90;;;;;;5045232;28;20040;-75
2022/10/31 07:39:18;;;;;;;12.75;8.70;;;10.30;99.90;;;;;;5034353;28;20037;-76
2022/10/31 07:41:43;;;;;;;10.88;8.73;;;10.40;99.90;;;;;;5030482;28;20068;-75
2022/10/31 07:44:09;;;;;;;11.10;8.50;;;10.40;99.90;;;;;;5030252;28;20486;-75
2022/10/31 07:46:35;;;;;;;12.23;8.32;;;10.50;99.90;;;;;;5032627;28;20512;-75
2022/10/31 07:49:01;;;;;;;10.23;7.72;;;10.50;99.90;;;;;;5030971;28;20037;-75
2022/10/31 07:51:26;;;;;;;12.32;7.85;;;10.60;99.90;;;;;;5038674;28;20094;-76
2022/10/31 07:53:52;;;;;;;15.52;10.10;;;10.60;99.90;;;;;;5031595;28;20409;-75
2022/10/31 07:56:18;;;;;;;21.00;13.55;;;10.70;99.90;;;;;;5034292;28;20069;-75
2022/10/31 07:58:43;;;;;;;21.65;12.82;;;10.80;99.90;;;;;;5033309;28;20539;-76
2022/10/31 08:01:09;;;;;;;21.40;10.98;;;10.80;99.90;;;;;;5025663;28;20183;-76
2022/10/31 08:03:35;;;;;;;19.88;10.02;;;11.00;99.90;;;;;;5022815;28;20044;-76
2022/10/31 08:06:01;;;;;;;16.40;9.88;;;11.10;99.90;;;;;;5028341;28;20033;-75
2022/10/31 08:08:27;;;;;;;16.02;9.63;;;11.10;99.90;;;;;;5029691;28;20036;-76
2022/10/31 08:10:54;;;;;;;16.27;8.93;;;11.30;99.90;;;;;;5031502;28;20088;-76
2022/10/31 08:13:21;;;;;;;17.38;9.60;;;11.30;99.90;;;;;;5034477;28;20056;-76
2022/10/31 08:15:51;;;;;;;14.25;8.30;;;11.40;99.90;;;;;;5030844;28;20965;-76
2022/10/31 08:18:17;;;;;;;14.75;8.88;;;11.50;99.90;;;;;;5030190;28;20033;-76
2022/10/31 08:20:43;;;;;;;12.60;9.10;;;11.60;99.90;;;;;;5036995;28;20083;-76
2022/10/31 08:23:11;;;;;;;15.80;9.27;;;11.70;99.90;;;;;;5034138;28;20037;-76
2022/10/31 08:25:37;;;;;;;15.80;9.70;;;11.80;99.90;;;;;;5031140;28;20049;-77
2022/10/31 08:28:03;;;;;;;14.15;8.77;;;11.90;99.90;;;;;;5031935;28;20406;-77
2022/10/31 08:30:32;;;;;;;18.40;9.68;;;12.00;99.90;;;;;;5026345;28;20671;-75
2022/10/31 08:33:05;;;;;;;14.98;9.35;;;12.10;99.90;;;;;;5026365;28;20420;-75
2022/10/31 08:35:32;;;;;;;16.83;9.18;;;;;;;;;;5029046;28;20043;-75
2022/10/31 08:37:58;;;;;;;22.52;10.43;;;12.40;99.90;;;;;;5031625;28;20064;-74
2022/10/31 08:40:25;;;;;;;20.52;10.15;;;12.50;99.90;;;;;;5033404;28;20531;-75
2022/10/31 08:42:58;;;;;;;19.75;10.15;;;12.60;99.90;;;;;;5029418;28;20072;-76
2022/10/31 08:45:24;;;;;;;17.50;10.15;;;12.80;99.90;;;;;;5020598;28;20504;-76
2022/10/31 08:47:50;;;;;;;16.90;9.55;;;12.90;99.90;;;;;;5029741;28;20025;-75
2022/10/31 08:50:16;;;;;;;20.00;9.30;;;12.90;99.90;;;;;;5030970;28;20029;-75
2022/10/31 08:52:41;;;;;;;12.95;8.73;;;13.00;99.90;;;;;;5025075;28;20036;-76
2022/10/31 08:55:07;;;;;;;13.00;9.20;;;13.10;99.90;;;;;;5035127;28;20052;-76
2022/10/31 08:57:33;;;;;;;13.20;8.35;;;13.10;99.90;;;;;;5032786;28;20067;-76
2022/10/31 08:59:58;;;;;;;13.52;8.30;;;13.10;99.90;;;;;;5027701;28;20110;-75
2022/10/31 09:02:24;;;;;;;14.40;8.90;;;13.10;99.90;;;;;;5026346;28;20504;-76
2022/10/31 09:04:50;;;;;;;14.25;9.25;;;13.30;99.90;;;;;;5025371;28;20492;-76
2022/10/31 09:07:15;;;;;;;15.85;9.10;;;13.30;99.90;;;;;;5023707;28;20447;-74
2022/10/31 09:09:41;;;;;;;17.85;9.50;;;13.50;99.90;;;;;;5039601;28;20040;-77
2022/10/31 09:12:07;;;;;;;17.58;9.88;;;13.60;99.90;;;;;;5026818;28;20240;-75
2022/10/31 09:14:32;;;;;;;19.10;9.68;;;13.70;99.90;;;;;;5035643;28;20048;-77
2022/10/31 09:16:58;;;;;;;14.80;9.82;;;13.80;99.90;;;;;;5028093;28;20029;-78
2022/10/31 09:19:23;;;;;;;18.92;9.38;;;13.90;99.90;;;;;;5027572;28;20531;-75
2022/10/31 09:21:53;;;;;;;15.80;10.15;;;13.90;99.90;;;;;;5035525;28;20013;-76
2022/10/31 09:24:19;;;;;;;14.98;10.05;;;14.00;99.90;;;;;;5031302;28;20093;-75
2022/10/31 09:26:44;;;;;;;14.75;9.52;;;14.10;99.90;;;;;;5033572;28;20036;-75
2022/10/31 09:29:10;;;;;;;16.33;9.77;;;14.10;99.90;;;;;;5024973;28;20473;-75
2022/10/31 09:31:36;;;;;;;19.20;10.50;;;14.20;99.90;;;;;;5033256;28;20037;-75
2022/10/31 09:34:02;;;;;;;14.63;10.25;;;14.30;99.90;;;;;;5034811;28;20028;-75
2022/10/31 09:36:27;;;;;;;16.42;9.82;;;14.30;99.90;;;;;;5028193;28;20410;-76
2022/10/31 09:38:53;;;;;;;17.90;10.20;;;14.40;99.90;;;;;;5034495;28;20032;-75
2022/10/31 09:41:47;;;;;;;18.10;10.15;;;14.40;99.90;;;;;;5037083;28;20028;-76
2022/10/31 09:44:43;;;;;;;17.55;10.68;;;14.40;99.90;;;;;;5025745;28;20052;-77
2022/10/31 09:47:29;;;;;;;18.90;11.52;;;14.50;99.90;;;;;;5031730;28;20547;-76
2022/10/31 09:49:58;;;;;;;19.98;11.98;;;14.50;99.90;;;;;;5032430;28;20123;-76
2022/10/31 09:52:30;;;;;;;23.00;12.43;;;14.50;99.90;;;;;;5036287;28;20111;-75
2022/10/31 09:55:13;;;;;;;25.52;13.00;;;14.50;99.90;;;;;;5024732;28;20072;-76
2022/10/31 09:57:41;;;;;;;21.35;12.32;;;14.60;99.90;;;;;;5031943;28;20037;-74
2022/10/31 10:00:16;;;;;;;19.85;11.43;;;14.60;99.90;;;;;;5022459;28;20389;-75
2022/10/31 10:03:24;;;;;;;17.27;12.07;;;14.70;99.90;;;;;;5017570;28;20017;-74
2022/10/31 10:05:53;;;;;;;20.05;11.93;;;14.70;99.90;;;;;;5027758;28;20340;-74
2022/10/31 10:08:23;;;;;;;19.98;12.93;;;14.80;99.90;;;;;;5027403;28;20115;-74
2022/10/31 10:10:55;;;;;;;22.25;13.23;;;;;;;;;;5023279;28;20032;-74
2022/10/31 10:13:36;;;;;;;23.17;13.35;;;15.00;99.90;;;;;;5025331;28;20056;-81
2022/10/31 10:16:01;;;;;;;27.48;13.88;;;15.10;99.90;;;;;;5024218;28;20048;-76
2022/10/31 10:18:46;;;;;;;28.30;13.57;;;15.20;99.90;;;;;;5029585;28;20018;-75
2022/10/31 10:21:24;;;;;;;25.85;12.82;;;15.30;99.90;;;;;;5029715;28;20032;-76
2022/10/31 10:23:52;;;;;;;25.05;13.60;;;15.30;99.90;;;;;;5034530;28;20513;-75
2022/10/31 10:26:20;;;;;;;26.60;14.27;;;15.30;99.90;;;;;;5032640;28;20037;-75
2022/10/31 10:29:11;;;;;;;25.20;13.98;;;15.40;99.90;;;;;;5035996;28;20033;-75
2022/10/31 10:31:41;;;;;;;24.23;13.98;;;15.40;99.90;;;;;;5033531;28;20290;-75
2022/10/31 10:34:19;;;;;;;23.13;14.93;;;15.50;99.90;;;;;;5028974;28;20029;-75
2022/10/31 10:36:53;;;;;;;32.25;15.93;;;15.60;99.90;;;;;;5035499;28;20071;-75
2022/10/31 10:39:45;;;;;;;27.90;15.45;;;15.70;99.90;;;;;;5036037;28;20117;-76
2022/10/31 10:47:44;;;;;;;29.52;16.48;;;15.90;99.90;;;;;;5036113;28;20029;-76
2022/10/31 10:50:23;;;;;;;30.38;16.95;;;15.90;99.90;;;;;;5036436;28;20037;-75
2022/10/31 10:53:31;;;;;;;32.45;17.60;;;15.90;99.90;;;;;;5028387;28;20053;-76
2022/10/31 10:56:02;;;;;;;29.65;16.27;;;16.00;99.90;;;;;;5034614;28;20091;-76
2022/10/31 10:58:28;;;;;;;31.17;16.60;;;16.00;99.90;;;;;;5045690;28;20025;-76
2022/10/31 11:00:55;;;;;;;27.58;15.73;;;16.00;99.90;;;;;;5034906;28;20032;-75
2022/10/31 11:03:21;;;;;;;29.73;17.05;;;16.20;99.90;;;;;;5027447;28;20029;-76
2022/10/31 11:05:58;;;;;;;30.73;16.67;;;16.20;99.90;;;;;;5030565;28;20537;-76
2022/10/31 11:08:34;;;;;;;34.83;18.40;;;16.30;99.90;;;;;;5029722;28;20029;-76
2022/10/31 11:11:32;;;;;;;42.75;23.95;;;16.40;99.90;;;;;;5034463;28;20036;-76
2022/10/31 11:14:05;;;;;;;41.38;21.52;;;16.60;99.90;;;;;;5042290;28;20086;-76
2022/10/31 11:16:38;;;;;;;;;;;16.70;99.90;;;;;;5041544;28;20453;-75
2022/10/31 11:19:27;;;;;;;36.03;20.00;;;16.80;99.90;;;;;;5043928;28;20381;-75
2022/10/31 11:21:53;;;;;;;32.85;19.75;;;16.90;99.90;;;;;;5032048;28;20033;-75
2022/10/31 11:24:21;;;;;;;31.35;18.92;;;17.00;99.90;;;;;;5033952;28;20108;-76
2022/10/31 11:26:49;;;;;;;36.30;18.75;;;17.10;99.90;;;;;;5035771;28;20017;-76
2022/10/31 11:29:25;;;;;;;39.63;19.13;;;17.20;99.90;;;;;;5034861;28;20033;-76
2022/10/31 11:31:56;;;;;;;30.77;18.42;;;17.30;99.90;;;;;;5037603;28;20031;-76
2022/10/31 11:34:34;;;;;;;31.27;18.88;;;17.40;99.90;;;;;;5028405;28;20025;-76
2022/10/31 11:37:26;;;;;;;33.30;17.85;;;17.50;99.90;;;;;;5026255;28;20048;-76
2022/10/31 11:39:58;;;;;;;32.33;17.83;;;17.60;99.90;;;;;;5035525;28;20129;-76
2022/10/31 11:42:34;;;;;;;29.27;17.27;;;17.70;99.90;;;;;;5033604;28;20091;-76
2022/10/31 11:45:06;;;;;;;31.00;18.10;;;17.70;99.90;;;;;;5041452;28;20497;-75
2022/10/31 11:47:36;;;;;;;31.70;18.50;;;17.70;99.90;;;;;;5028949;28;20038;-75
2022/10/31 11:50:09;;;;;;;34.05;18.05;;;;;;;;;;5032780;28;20051;-76
2022/10/31 11:52:39;;;;;;;37.83;18.33;;;17.70;99.90;;;;;;5027471;28;20033;-76
2022/10/31 11:55:29;;;;;;;33.72;18.20;;;17.70;99.90;;;;;;5032959;28;20427;-76
2022/10/31 11:57:55;;;;;;;32.40;17.30;;;17.80;99.90;;;;;;5043478;28;20091;-76
2022/10/31 12:00:33;;;;;;;28.70;16.33;;;17.80;99.90;;;;;;5035145;28;20025;-76
2022/10/31 12:03:23;;;;;;;33.05;18.50;;;17.90;99.90;;;;;;5034348;28;20116;-77
2022/10/31 12:06:29;;;;;;;34.80;19.08;;;17.90;99.90;;;;;;5036314;28;20041;-76
2022/10/31 12:08:54;;;;;;;33.50;19.15;;;17.90;99.90;;;;;;5025846;28;20517;-77
2022/10/31 12:11:29;;;;;;;33.60;18.55;;;17.90;99.90;;;;;;5039482;28;20033;-77
2022/10/31 12:14:31;;;;;;;32.17;18.52;;;17.90;99.90;;;;;;5034845;28;20047;-77
2022/10/31 12:17:24;;;;;;;32.17;18.15;;;17.90;99.90;;;;;;5033138;28;20581;-77
2022/10/31 12:19:55;;;;;;;29.35;17.42;;;17.80;99.90;;;;;;5027691;28;20585;-77
2022/10/31 12:22:34;;;;;;;29.27;17.65;;;17.70;99.90;;;;;;5028375;28;20026;-76
2022/10/31 12:25:36;;;;;;;36.35;18.25;;;17.50;99.90;;;;;;5029542;28;20032;-76
2022/10/31 12:28:11;;;;;;;29.13;18.52;;;17.40;99.90;;;;;;5028628;28;20029;-77
2022/10/31 12:30:50;;;;;;;32.40;17.77;;;17.40;99.90;;;;;;5043456;28;20440;-77
2022/10/31 12:33:38;;;;;;;33.28;18.38;;;17.40;99.90;;;;;;5028881;28;20041;-77
2022/10/31 12:36:38;;;;;;;30.40;18.80;;;17.40;99.90;;;;;;5030817;28;20030;-77
2022/10/31 12:39:30;;;;;;;31.98;18.20;;;17.40;99.90;;;;;;5028596;28;20116;-77
2022/10/31 12:42:11;;;;;;;33.55;18.02;;;17.50;99.90;;;;;;5030545;28;20056;-77
2022/10/31 12:44:48;;;;;;;36.83;17.85;;;17.60;99.90;;;;;;5030698;28;20489;-76
2022/10/31 12:47:43;;;;;;;29.75;17.75;;;17.60;99.90;;;;;;5036812;28;20082;-76
2022/10/31 12:50:43;;;;;;;31.00;18.65;;;17.70;99.90;;;;;;5041084;28;20043;-77
2022/10/31 12:53:08;;;;;;;34.15;18.52;;;17.70;99.90;;;;;;5027497;28;20420;-77
2022/10/31 12:55:46;;;;;;;31.38;18.63;;;17.70;99.90;;;;;;5036041;28;20017;-76
2022/10/31 12:58:19;;;;;;;27.83;17.65;;;17.70;99.90;;;;;;5027031;28;20083;-77